Temp: 20.6°C   Baro: 1012.0mb
  Wind: 4.9mph   Dir: W (278°)
  Rain: 0.0mm (0.0mm/hr)
  Solar: 183W/m2  Hum: 62%
 
Bath Spa Weather Station Historical Data
Daily Summary for March 11, 2020 Units:  Metric    English   Both
Daily Weekly Monthly Yearly Custom
  High: Low: Average:
Temperature: 32.6 °C 16.8 °C 24.1 °C
Dew Point: 22.9 °C 15.7 °C 19.3 °C
Humidity: 94% 50.8% 76%
Wind Speed: 15.1km/h 0km/h 2.6km/h
Wind Gust: 20.9km/h - -
Wind- - WSW
Pressure: 1014.8 hPa 1012.1 hPa -
Precipitation: 0 mm    
Historical Graphs
 
 
Tabular Data for March 11, 2020
Time Temperature Dew Point Pressure Wind Wind Speed Wind Gust Humidity Rainfall Rate (Hourly) solar
00:04 20.3 °C 18.1 °C 1013.8 hPa West 2.4 km/h 4.8 km/h 87% 0 mm 0 W/m2
00:09 20.3 °C 18.1 °C 1013.8 hPa West 0.8 km/h 4.8 km/h 87% 0 mm 0 W/m2
00:14 20.2 °C 18.1 °C 1013.8 hPa West 1.9 km/h 6.4 km/h 87% 0 mm 0 W/m2
00:19 20.2 °C 18 °C 1013.8 hPa West 3.2 km/h 6.4 km/h 87% 0 mm 0 W/m2
00:24 20.1 °C 17.9 °C 1013.8 hPa West 1.9 km/h 6.4 km/h 87% 0 mm 0 W/m2
00:29 20.1 °C 17.9 °C 1013.8 hPa West 0.6 km/h 4.8 km/h 87% 0 mm 0 W/m2
00:34 20.1 °C 18 °C 1013.8 hPa West 1 km/h 4.8 km/h 88% 0 mm 0 W/m2
00:39 20.1 °C 18 °C 1013.8 hPa West 0.8 km/h 3.2 km/h 88% 0 mm 0 W/m2
00:44 19.9 °C 17.9 °C 1013.8 hPa West 1.1 km/h 3.2 km/h 87.8% 0 mm 0 W/m2
00:49 19.9 °C 17.8 °C 1013.4 hPa West 1.4 km/h 4.8 km/h 87.8% 0 mm 0 W/m2
00:54 19.8 °C 17.8 °C 1013.8 hPa West 2.7 km/h 4.8 km/h 88% 0 mm 0 W/m2
00:59 19.8 °C 17.8 °C 1013.8 hPa West 2.3 km/h 4.8 km/h 88% 0 mm 0 W/m2
01:04 19.7 °C 17.7 °C 1013.8 hPa West 2.1 km/h 6.4 km/h 88% 0 mm 0 W/m2
01:09 19.7 °C 17.7 °C 1013.8 hPa West 1.3 km/h 4.8 km/h 88% 0 mm 0 W/m2
01:14 19.7 °C 17.7 °C 1013.4 hPa West 2.7 km/h 4.8 km/h 88% 0 mm 0 W/m2
01:19 19.6 °C 17.6 °C 1013.4 hPa West 1.9 km/h 4.8 km/h 88% 0 mm 0 W/m2
01:24 19.6 °C 17.6 °C 1013.4 hPa West 0.8 km/h 4.8 km/h 88% 0 mm 0 W/m2
01:29 19.5 °C 17.5 °C 1013.8 hPa West 0.6 km/h 4.8 km/h 88% 0 mm 0 W/m2
01:34 19.4 °C 17.4 °C 1013.8 hPa West 3.1 km/h 4.8 km/h 88.2% 0 mm 0 W/m2
01:39 19.3 °C 17.4 °C 1013.8 hPa West 3.4 km/h 6.4 km/h 89% 0 mm 0 W/m2
01:44 19.3 °C 17.4 °C 1013.8 hPa West 2.1 km/h 8 km/h 89% 0 mm 0 W/m2
01:49 19.3 °C 17.4 °C 1013.8 hPa West 1.1 km/h 3.2 km/h 89% 0 mm 0 W/m2
01:54 19.3 °C 17.4 °C 1013.8 hPa West 2.3 km/h 4.8 km/h 89% 0 mm 0 W/m2
01:59 19.2 °C 17.3 °C 1013.8 hPa West 2.3 km/h 4.8 km/h 89% 0 mm 0 W/m2
02:04 19.2 °C 17.3 °C 1013.8 hPa West 1 km/h 4.8 km/h 89% 0 mm 0 W/m2
02:09 19.2 °C 17.3 °C 1013.8 hPa West 0.6 km/h 3.2 km/h 89% 0 mm 0 W/m2
02:14 19.2 °C 17.2 °C 1013.8 hPa West 0.8 km/h 3.2 km/h 89% 0 mm 0 W/m2
02:19 19 °C 17.1 °C 1013.8 hPa West 2.6 km/h 4.8 km/h 89% 0 mm 0 W/m2
02:24 18.9 °C 17 °C 1013.8 hPa West 1.9 km/h 4.8 km/h 89% 0 mm 0 W/m2
02:29 18.8 °C 17.1 °C 1013.4 hPa West 0.3 km/h 4.8 km/h 90% 0 mm 0 W/m2
02:34 18.8 °C 17.1 °C 1013.4 hPa Calm   1.6 km/h 90% 0 mm 0 W/m2
02:39 18.8 °C 17.1 °C 1013.4 hPa Calm   1.6 km/h 90% 0 mm 0 W/m2
02:44 18.8 °C 17.1 °C 1013.4 hPa Calm   1.6 km/h 90% 0 mm 0 W/m2
02:49 18.8 °C 17.1 °C 1013.4 hPa Calm     90% 0 mm 0 W/m2
02:54 18.8 °C 17.1 °C 1013.4 hPa Calm     90% 0 mm 0 W/m2
02:59 18.7 °C 16.9 °C 1013.4 hPa Calm     90% 0 mm 0 W/m2
03:04 18.6 °C 16.9 °C 1013.4 hPa Calm     90% 0 mm 0 W/m2
03:09 18.6 °C 16.9 °C 1013.4 hPa Calm     90% 0 mm 0 W/m2
03:14 18.5 °C 16.8 °C 1013.4 hPa Calm   1.6 km/h 90% 0 mm 0 W/m2
03:19 18.4 °C 16.7 °C 1013.8 hPa West 0.8 km/h 3.2 km/h 90% 0 mm 0 W/m2
03:24 18.3 °C 16.7 °C 1013.8 hPa Calm   3.2 km/h 90% 0 mm 0 W/m2
03:29 18.3 °C 16.6 °C 1013.8 hPa West 0.6 km/h 3.2 km/h 90% 0 mm 0 W/m2
03:34 18.2 °C 16.5 °C 1013.8 hPa West 2.3 km/h 4.8 km/h 90% 0 mm 0 W/m2
03:39 18.1 °C 16.5 °C 1013.8 hPa Calm   3.2 km/h 90.6% 0 mm 0 W/m2
03:44 18.1 °C 16.6 °C 1013.8 hPa Calm   1.6 km/h 91% 0 mm 0 W/m2
03:49 18.1 °C 16.6 °C 1013.8 hPa Calm     91% 0 mm 0 W/m2
03:54 18.1 °C 16.6 °C 1013.8 hPa Calm     91% 0 mm 0 W/m2
03:59 18 °C 16.6 °C 1013.8 hPa Calm     91% 0 mm 0 W/m2
04:04 18 °C 16.5 °C 1013.8 hPa Calm     91% 0 mm 0 W/m2
04:09 17.9 °C 16.4 °C 1013.8 hPa Calm     91% 0 mm 0 W/m2
04:14 17.9 °C 16.4 °C 1013.4 hPa Calm     91% 0 mm 0 W/m2
04:19 17.8 °C 16.3 °C 1013.4 hPa Calm     91% 0 mm 0 W/m2
04:24 17.8 °C 16.3 °C 1013.4 hPa Calm     91% 0 mm 0 W/m2
04:29 17.8 °C 16.3 °C 1013.8 hPa Calm     91% 0 mm 0 W/m2
04:34 17.8 °C 16.3 °C 1013.8 hPa Calm     91% 0 mm 0 W/m2
04:39 17.8 °C 16.3 °C 1013.8 hPa Calm     91.4% 0 mm 0 W/m2
04:44 17.7 °C 16.4 °C 1013.8 hPa West 0.6 km/h 3.2 km/h 92% 0 mm 0 W/m2
04:49 17.7 °C 16.4 °C 1013.8 hPa West 1 km/h 3.2 km/h 92% 0 mm 0 W/m2
04:54 17.6 °C 16.3 °C 1013.8 hPa West 0.6 km/h 4.8 km/h 92% 0 mm 0 W/m2
04:59 17.6 °C 16.3 °C 1013.8 hPa Calm   1.6 km/h 92% 0 mm 0 W/m2
05:04 17.6 °C 16.3 °C 1013.8 hPa Calm     92% 0 mm 0 W/m2
05:09 17.6 °C 16.3 °C 1013.8 hPa Calm     92% 0 mm 0 W/m2
05:14 17.5 °C 16.2 °C 1013.8 hPa Calm     92% 0 mm 0 W/m2
05:19 17.4 °C 16.2 °C 1013.8 hPa West 0.3 km/h 1.6 km/h 92% 0 mm 0 W/m2
05:24 17.4 °C 16.1 °C 1013.8 hPa Calm   1.6 km/h 92% 0 mm 0 W/m2
05:29 17.4 °C 16.1 °C 1013.8 hPa Calm     92% 0 mm 0 W/m2
05:34 17.4 °C 16.1 °C 1014.1 hPa Calm     92% 0 mm 0 W/m2
05:39 17.3 °C 16.1 °C 1014.1 hPa West 0.6 km/h 3.2 km/h 92% 0 mm 0 W/m2
05:44 17.3 °C 16 °C 1014.1 hPa Calm   1.6 km/h 92% 0 mm 0 W/m2
05:49 17.3 °C 16 °C 1014.1 hPa Calm     92% 0 mm 0 W/m2
05:54 17.2 °C 15.9 °C 1014.1 hPa Calm     92% 0 mm 0 W/m2
05:59 17.2 °C 15.9 °C 1014.1 hPa Calm     92% 0 mm 0 W/m2
06:04 17.2 °C 15.9 °C 1014.1 hPa West 0.6 km/h 1.6 km/h 92.2% 0 mm 5 W/m2
06:09 17.1 °C 16 °C 1014.4 hPa Calm   1.6 km/h 93% 0 mm 7 W/m2
06:14 17.1 °C 16 °C 1014.4 hPa West 0.6 km/h 1.6 km/h 93% 0 mm 7 W/m2
06:19 17.1 °C 16 °C 1014.4 hPa West 0.3 km/h 3.2 km/h 93% 0 mm 9 W/m2
06:24 17.1 °C 15.9 °C 1014.4 hPa Calm     93% 0 mm 11 W/m2
06:29 17 °C 15.9 °C 1014.4 hPa Calm     93% 0 mm 12 W/m2
06:34 17 °C 15.9 °C 1014.4 hPa Calm     93% 0 mm 16 W/m2
06:39 16.9 °C 15.8 °C 1014.4 hPa West 1.1 km/h 3.2 km/h 93% 0 mm 18 W/m2
06:44 16.9 °C 15.8 °C 1014.4 hPa West 2.6 km/h 6.4 km/h 93% 0 mm 19 W/m2
06:49 16.8 °C 15.7 °C 1014.4 hPa West 2.1 km/h 6.4 km/h 93% 0 mm 21 W/m2
06:54 16.8 °C 15.7 °C 1014.4 hPa West 1.1 km/h 3.2 km/h 93% 0 mm 26 W/m2
06:59 16.8 °C 15.7 °C 1014.4 hPa Calm   3.2 km/h 93% 0 mm 33 W/m2
07:04 16.8 °C 15.7 °C 1014.4 hPa West 0.3 km/h 1.6 km/h 93% 0 mm 44 W/m2
07:09 16.8 °C 15.7 °C 1014.4 hPa West 1.4 km/h 3.2 km/h 93% 0 mm 42 W/m2
07:14 16.9 °C 15.8 °C 1014.4 hPa Calm   3.2 km/h 93% 0 mm 53 W/m2
07:19 16.9 °C 15.8 °C 1014.4 hPa Calm   3.2 km/h 93% 0 mm 62 W/m2
07:24 17 °C 15.9 °C 1014.4 hPa Calm   1.6 km/h 93.6% 0 mm 70 W/m2
07:29 17.1 °C 16.1 °C 1014.4 hPa West 0.3 km/h 3.2 km/h 94% 0 mm 83 W/m2
07:34 17.2 °C 16.2 °C 1014.4 hPa West 1.6 km/h 3.2 km/h 94% 0 mm 93 W/m2
07:39 17.2 °C 16.2 °C 1014.4 hPa West 0.3 km/h 3.2 km/h 94% 0 mm 102 W/m2
07:44 17.3 °C 16.3 °C 1014.8 hPa West 1.4 km/h 4.8 km/h 94% 0 mm 116 W/m2
07:49 17.3 °C 16.3 °C 1014.4 hPa West 1.3 km/h 4.8 km/h 94% 0 mm 127 W/m2
07:54 17.6 °C 16.6 °C 1014.4 hPa West 0.3 km/h 3.2 km/h 94% 0 mm 142 W/m2
07:59 17.7 °C 16.7 °C 1014.4 hPa West 0.6 km/h 3.2 km/h 94% 0 mm 156 W/m2
08:04 17.8 °C 16.8 °C 1014.4 hPa West 1.6 km/h 3.2 km/h 94% 0 mm 169 W/m2
08:09 18 °C 16.9 °C 1014.4 hPa West 0.6 km/h 3.2 km/h 93.6% 0 mm 181 W/m2
08:14 18.2 °C 17 °C 1014.4 hPa West 2.6 km/h 4.8 km/h 93% 0 mm 195 W/m2
08:19 18.3 °C 17.2 °C 1014.8 hPa West 1.6 km/h 4.8 km/h 92.8% 0 mm 211 W/m2
08:24 18.6 °C 17.2 °C 1014.8 hPa West 1.4 km/h 3.2 km/h 92% 0 mm 229 W/m2
08:29 18.8 °C 17.4 °C 1014.4 hPa West 2.6 km/h 4.8 km/h 91.6% 0 mm 239 W/m2
08:34 19.1 °C 17.6 °C 1014.4 hPa West 1.3 km/h 4.8 km/h 91% 0 mm 257 W/m2
08:39 19.2 °C 17.6 °C 1014.4 hPa West 1.9 km/h 4.8 km/h 90% 0 mm 272 W/m2
08:43 19.4 °C 17.6 °C 1014.4 hPa West 1.6 km/h 4.8 km/h 89.3% 0 mm 287 W/m2
08:49 19.8 °C 17.9 °C 1014.4 hPa West 1.9 km/h 4.8 km/h 88.6% 0 mm 301 W/m2
08:54 20.1 °C 17.9 °C 1014.4 hPa West 1.9 km/h 4.8 km/h 87.6% 0 mm 318 W/m2
08:59 20.3 °C 17.9 °C 1014.4 hPa West 2.9 km/h 6.4 km/h 86.4% 0 mm 332 W/m2
09:04 20.5 °C 18.1 °C 1014.4 hPa West 1.6 km/h 4.8 km/h 86% 0 mm 346 W/m2
09:09 20.7 °C 18.1 °C 1014.4 hPa West 1.9 km/h 4.8 km/h 85% 0 mm 362 W/m2
09:14 21.1 °C 18.3 °C 1014.4 hPa West 2.1 km/h 4.8 km/h 84.6% 0 mm 376 W/m2
09:19 21.4 °C 18.6 °C 1014.8 hPa West 0.3 km/h 3.2 km/h 83.8% 0 mm 381 W/m2
09:24 21.6 °C 18.4 °C 1014.8 hPa West 2.7 km/h 6.4 km/h 82.4% 0 mm 397 W/m2
09:29 21.5 °C 18.3 °C 1014.8 hPa West 1 km/h 6.4 km/h 82% 0 mm 408 W/m2
09:34 21.9 °C 18.8 °C 1014.8 hPa West 0.6 km/h 4.8 km/h 82.4% 0 mm 420 W/m2
09:39 22.2 °C 18.8 °C 1014.8 hPa West 1.9 km/h 4.8 km/h 81.2% 0 mm 436 W/m2
09:44 22.6 °C 19.1 °C 1014.4 hPa West 1.3 km/h 3.2 km/h 80.6% 0 mm 446 W/m2
09:49 22.6 °C 18.9 °C 1014.4 hPa SSW 1.8 km/h 8 km/h 79.4% 0 mm 459 W/m2
09:54 22.7 °C 19 °C 1014.4 hPa SSW 1.1 km/h 4.8 km/h 79.6% 0 mm 471 W/m2
09:59 22.8 °C 19.1 °C 1014.4 hPa SSW 3.2 km/h 8 km/h 79% 0 mm 483 W/m2
10:04 23 °C 19.1 °C 1014.4 hPa SSE 0.6 km/h 6.4 km/h 78.6% 0 mm 496 W/m2
10:09 23.1 °C 19.2 °C 1014.4 hPa SSE 3.2 km/h 6.4 km/h 78.2% 0 mm 512 W/m2
10:14 23.2 °C 19.1 °C 1014.4 hPa SSE 3.9 km/h 8 km/h 78% 0 mm 520 W/m2
10:19 23.2 °C 19.1 °C 1014.4 hPa SSE 1.6 km/h 6.4 km/h 78% 0 mm 531 W/m2
10:24 23.5 °C 19.3 °C 1014.4 hPa SSE 1 km/h 3.2 km/h 77.4% 0 mm 541 W/m2
10:29 23.7 °C 19.4 °C 1014.4 hPa SSW 2.1 km/h 6.4 km/h 76.8% 0 mm 547 W/m2
10:34 24.3 °C 19.8 °C 1014.4 hPa SSW 1.4 km/h 4.8 km/h 76.2% 0 mm 577 W/m2
10:39 25.1 °C 20.2 °C 1014.4 hPa SE 3.4 km/h 6.4 km/h 74% 0 mm 575 W/m2
10:44 25.5 °C 20.1 °C 1014.4 hPa SE 4 km/h 8 km/h 72% 0 mm 582 W/m2
10:49 25.6 °C 20 °C 1014.4 hPa ENE 3.7 km/h 11.3 km/h 71.2% 0 mm 612 W/m2
10:54 25.7 °C 20 °C 1014.4 hPa NE 2.7 km/h 11.3 km/h 71% 0 mm 617 W/m2
10:59 25.6 °C 20.1 °C 1014.4 hPa NNE 3.5 km/h 9.7 km/h 71.4% 0 mm 624 W/m2
11:04 25.9 °C 20.5 °C 1014.4 hPa ENE 5.1 km/h 9.7 km/h 72% 0 mm 615 W/m2
11:09 26.6 °C 20.4 °C 1014.4 hPa East 2.7 km/h 8 km/h 69% 0 mm 629 W/m2
11:14 26.2 °C 20.3 °C 1014.4 hPa East 3.2 km/h 6.4 km/h 70.2% 0 mm 621 W/m2
11:19 26.6 °C 20.5 °C 1014.4 hPa ESE 2.6 km/h 6.4 km/h 69.4% 0 mm 617 W/m2
11:24 26.9 °C 20.6 °C 1014.4 hPa ESE 0.3 km/h 3.2 km/h 68.4% 0 mm 559 W/m2
11:29 26.5 °C 20.2 °C 1014.4 hPa ESE 2.9 km/h 6.4 km/h 68.6% 0 mm 594 W/m2
11:34 26.1 °C 20.2 °C 1014.1 hPa SSW 5.1 km/h 8 km/h 70.2% 0 mm 645 W/m2
11:39 25.9 °C 20.2 °C 1014.1 hPa West 3.2 km/h 8 km/h 71% 0 mm 659 W/m2
11:44 26.3 °C 20.4 °C 1014.1 hPa WNW 3.4 km/h 4.8 km/h 70.4% 0 mm 670 W/m2
11:49 26.8 °C 20.6 °C 1014.1 hPa WNW 4 km/h 6.4 km/h 68.8% 0 mm 670 W/m2
11:54 26.8 °C 20.5 °C 1014.1 hPa WNW 2.3 km/h 6.4 km/h 68.4% 0 mm 675 W/m2
11:59 27.6 °C 20.9 °C 1014.1 hPa WNW 0.3 km/h 6.4 km/h 67% 0 mm 682 W/m2
12:04 28.7 °C 21.7 °C 1014.1 hPa NNE 3.7 km/h 9.7 km/h 65.8% 0 mm 689 W/m2
12:09 28 °C 21.5 °C 1014.1 hPa North 4.8 km/h 8 km/h 67.8% 0 mm 691 W/m2
12:14 27.4 °C 21.3 °C 1014.1 hPa North 3.5 km/h 6.4 km/h 69% 0 mm 714 W/m2
12:19 27.7 °C 21.5 °C 1014.1 hPa NW 2.3 km/h 6.4 km/h 69.2% 0 mm 715 W/m2
12:24 28.7 °C 21.8 °C 1014.1 hPa WNW 2.6 km/h 4.8 km/h 66.4% 0 mm 694 W/m2
12:29 29.2 °C 22 °C 1014.1 hPa WSW 1.8 km/h 4.8 km/h 65% 0 mm 724 W/m2
12:34 29.4 °C 21.8 °C 1014.1 hPa WSW 0.6 km/h 4.8 km/h 63.6% 0 mm 721 W/m2
12:39 29.8 °C 21.8 °C 1014.1 hPa South 2.6 km/h 9.7 km/h 62.6% 0 mm 721 W/m2
12:44 28.8 °C 21.5 °C 1014.1 hPa SSE 3.9 km/h 6.4 km/h 64.8% 0 mm 731 W/m2
12:49 28.6 °C 21.7 °C 1014.1 hPa SSW 2.6 km/h 6.4 km/h 66.2% 0 mm 740 W/m2
12:54 29.1 °C 21.7 °C 1014.1 hPa SW 4.5 km/h 9.7 km/h 64.6% 0 mm 719 W/m2
12:59 29.1 °C 21.7 °C 1014.1 hPa WSW 2.4 km/h 6.4 km/h 64.4% 0 mm 747 W/m2
13:04 29.6 °C 21.9 °C 1013.8 hPa WSW 1.9 km/h 8 km/h 63.5% 0 mm 738 W/m2
13:09 30.3 °C 22 °C 1013.8 hPa WSW 4 km/h 8 km/h 61.4% 0 mm 737 W/m2
13:14 29.3 °C 21.6 °C 1013.8 hPa WSW 3.1 km/h 6.4 km/h 63.2% 0 mm 735 W/m2
13:19 29.6 °C 21.8 °C 1013.8 hPa WSW 4 km/h 6.4 km/h 63% 0 mm 733 W/m2
13:24 29.8 °C 21.8 °C 1013.8 hPa WSW 1.3 km/h 4.8 km/h 62.4% 0 mm 740 W/m2
13:29 30.3 °C 21.9 °C 1013.8 hPa WSW 2.7 km/h 8 km/h 60.8% 0 mm 721 W/m2
13:34 30.1 °C 21.8 °C 1013.8 hPa WSW 2.7 km/h 8 km/h 61.4% 0 mm 712 W/m2
13:39 30.3 °C 22.1 °C 1013.8 hPa SE 2.4 km/h 6.4 km/h 61.5% 0 mm 729 W/m2
13:44 31.6 °C 22.7 °C 1013.8 hPa SE 2.6 km/h 8 km/h 59.4% 0 mm 740 W/m2
13:49 32.3 °C 22.3 °C 1013.4 hPa East 3.4 km/h 11.3 km/h 55.6% 0 mm 740 W/m2
13:54 31.8 °C 22.3 °C 1013.4 hPa NE 3.2 km/h 8 km/h 57.4% 0 mm 731 W/m2
13:59 31.8 °C 21.9 °C 1013.4 hPa SE 2.7 km/h 6.4 km/h 56.3% 0 mm 726 W/m2
14:04 31.3 °C 21.8 °C 1013.4 hPa SE 3.2 km/h 6.4 km/h 57% 0 mm 712 W/m2
14:09 30.7 °C 21.7 °C 1013.4 hPa SE 2.6 km/h 4.8 km/h 58.6% 0 mm 708 W/m2
14:14 30.4 °C 21.5 °C 1013.4 hPa WSW 2.6 km/h 8 km/h 58.8% 0 mm 726 W/m2
14:19 30.4 °C 21.4 °C 1013.4 hPa WSW 3.4 km/h 8 km/h 59% 0 mm 728 W/m2
14:24 31.1 °C 21.7 °C 1013.4 hPa SW 4 km/h 8 km/h 57.4% 0 mm 717 W/m2
14:29 31.1 °C 21.6 °C 1013.4 hPa West 1.6 km/h 6.4 km/h 57% 0 mm 717 W/m2
14:34 32.3 °C 21.9 °C 1013.4 hPa SW 4.8 km/h 9.7 km/h 54.4% 0 mm 729 W/m2
14:39 31.5 °C 21.6 °C 1013.4 hPa SW 4.8 km/h 9.7 km/h 55.8% 0 mm 721 W/m2
14:44 31.2 °C 21.6 °C 1013.4 hPa WSW 1.9 km/h 6.4 km/h 56.6% 0 mm 717 W/m2
14:49 31.2 °C 21.7 °C 1013.1 hPa WNW 4.5 km/h 9.7 km/h 57% 0 mm 719 W/m2
14:54 31.4 °C 21.6 °C 1013.1 hPa WNW 4.5 km/h 9.7 km/h 56.2% 0 mm 705 W/m2
14:59 31 °C 21.3 °C 1013.1 hPa WNW 3.7 km/h 8 km/h 56.2% 0 mm 694 W/m2
15:04 31.9 °C 21.6 °C 1013.1 hPa NW 1.3 km/h 9.7 km/h 54.4% 0 mm 719 W/m2
15:09 32.1 °C 21.2 °C 1013.1 hPa WNW 3.2 km/h 6.4 km/h 52.4% 0 mm 710 W/m2
15:14 31.9 °C 20.9 °C 1013.1 hPa WNW 2.7 km/h 6.4 km/h 52.2% 0 mm 696 W/m2
15:19 31.8 °C 20.7 °C 1013.1 hPa WSW 3.2 km/h 6.4 km/h 51.8% 0 mm 728 W/m2
15:24 31.9 °C 20.6 °C 1013.1 hPa SW 2.3 km/h 4.8 km/h 51.2% 0 mm 728 W/m2
15:29 32.1 °C 20.7 °C 1013.1 hPa WSW 3.2 km/h 8 km/h 51% 0 mm 670 W/m2
15:34 31.8 °C 20.4 °C 1013.1 hPa West 3.4 km/h 8 km/h 51% 0 mm 673 W/m2
15:39 31.9 °C 20.5 °C 1013.1 hPa West 4 km/h 8 km/h 50.8% 0 mm 664 W/m2
15:44 32.1 °C 20.7 °C 1013.1 hPa SSW 6 km/h 11.3 km/h 51% 0 mm 671 W/m2
15:49 31.6 °C 20.5 °C 1013.1 hPa SW 2.7 km/h 9.7 km/h 52.2% 0 mm 666 W/m2
15:54 31.4 °C 20.6 °C 1013.1 hPa WSW 2.7 km/h 6.4 km/h 52.6% 0 mm 621 W/m2
15:59 31.8 °C 20.8 °C 1012.8 hPa SSE 2.6 km/h 11.3 km/h 52% 0 mm 605 W/m2
16:04 32.6 °C 21.1 °C 1012.8 hPa SSE 1.9 km/h 8 km/h 50.8% 0 mm 591 W/m2
16:09 32.6 °C 21.2 °C 1012.8 hPa South 1.6 km/h 6.4 km/h 51% 0 mm 582 W/m2
16:14 32.4 °C 21.1 °C 1012.8 hPa SSE 3.4 km/h 8 km/h 51.4% 0 mm 573 W/m2
16:19 32.1 °C 21 °C 1012.8 hPa SE 2.6 km/h 4.8 km/h 52% 0 mm 294 W/m2
16:23 31.7 °C 21 °C 1012.8 hPa SE 0.3 km/h 6.4 km/h 53.3% 0 mm 610 W/m2
16:29 31.9 °C 21.2 °C 1012.8 hPa West 1.3 km/h 8 km/h 53.2% 0 mm 610 W/m2
16:34 31.8 °C 21.1 °C 1012.8 hPa West 5.6 km/h 12.9 km/h 53.4% 0 mm 229 W/m2
16:39 31.3 °C 20.9 °C 1012.8 hPa WNW 8 km/h 12.9 km/h 54% 0 mm 237 W/m2
16:44 31.1 °C 21.3 °C 1012.4 hPa West 8.4 km/h 12.9 km/h 56% 0 mm 578 W/m2
16:49 31.4 °C 21.2 °C 1012.4 hPa West 6.4 km/h 12.9 km/h 54.6% 0 mm 510 W/m2
16:54 31.6 °C 21.2 °C 1012.4 hPa WSW 5.3 km/h 9.7 km/h 54% 0 mm 494 W/m2
16:59 31.5 °C 21.2 °C 1012.4 hPa West 4.2 km/h 8 km/h 54.4% 0 mm 483 W/m2
17:04 31.6 °C 21.1 °C 1012.4 hPa WSW 3.2 km/h 8 km/h 53.6% 0 mm 202 W/m2
17:09 31.7 °C 21.2 °C 1012.1 hPa West 5.1 km/h 11.3 km/h 54% 0 mm 439 W/m2
17:14 31.7 °C 21.2 °C 1012.1 hPa West 4.7 km/h 11.3 km/h 54% 0 mm 434 W/m2
17:19 31.9 °C 21.4 °C 1012.1 hPa WNW 4.8 km/h 8 km/h 54% 0 mm 427 W/m2
17:24 32 °C 21.9 °C 1012.1 hPa WNW 7.4 km/h 17.7 km/h 55.4% 0 mm 420 W/m2
17:29 31.4 °C 22.9 °C 1012.1 hPa West 9.7 km/h 19.3 km/h 60.6% 0 mm 396 W/m2
17:34 30.8 °C 22.8 °C 1012.1 hPa WNW 9.7 km/h 19.3 km/h 62.4% 0 mm 385 W/m2
17:39 30.3 °C 22.6 °C 1012.1 hPa WNW 13.5 km/h 17.7 km/h 63.4% 0 mm 385 W/m2
17:44 30.2 °C 22.6 °C 1012.1 hPa WNW 10.9 km/h 19.3 km/h 64% 0 mm 367 W/m2
17:49 30.1 °C 22.7 °C 1012.1 hPa WNW 10.5 km/h 17.7 km/h 64.8% 0 mm 334 W/m2
17:54 30.2 °C 22.8 °C 1012.1 hPa West 7.2 km/h 16.1 km/h 64.8% 0 mm 322 W/m2
17:59 30.2 °C 22.9 °C 1012.1 hPa WNW 7.1 km/h 14.5 km/h 65% 0 mm 299 W/m2
18:04 29.8 °C 22.6 °C 1012.1 hPa West 15.1 km/h 20.9 km/h 65% 0 mm 230 W/m2
18:09 29.6 °C 22.4 °C 1012.4 hPa WNW 6.9 km/h 16.1 km/h 65.4% 0 mm 213 W/m2
18:14 29.4 °C 22.4 °C 1012.4 hPa WNW 8.5 km/h 17.7 km/h 66.4% 0 mm 169 W/m2
18:19 29 °C 22.3 °C 1012.4 hPa West 9 km/h 17.7 km/h 67.4% 0 mm 132 W/m2
18:24 28.8 °C 22.3 °C 1012.4 hPa WNW 9.3 km/h 14.5 km/h 68% 0 mm 171 W/m2
18:29 28.7 °C 22.2 °C 1012.4 hPa WNW 6.4 km/h 12.9 km/h 68% 0 mm 171 W/m2
18:34 28.7 °C 22.2 °C 1012.4 hPa WNW 7.4 km/h 14.5 km/h 68% 0 mm 165 W/m2
18:39 28.6 °C 22.1 °C 1012.4 hPa WNW 9.7 km/h 14.5 km/h 68% 0 mm 199 W/m2
18:44 28.5 °C 22 °C 1012.4 hPa WNW 6.8 km/h 14.5 km/h 68% 0 mm 192 W/m2
18:49 28.3 °C 21.8 °C 1012.4 hPa WNW 7.1 km/h 14.5 km/h 68% 0 mm 128 W/m2
18:54 28.3 °C 21.8 °C 1012.4 hPa WNW 8.4 km/h 12.9 km/h 68% 0 mm 114 W/m2
18:59 28.2 °C 21.8 °C 1012.4 hPa WNW 9.3 km/h 12.9 km/h 68.2% 0 mm 130 W/m2
19:04 28.2 °C 21.9 °C 1012.4 hPa WNW 7.2 km/h 12.9 km/h 68.6% 0 mm 132 W/m2
19:09 28.2 °C 22 °C 1012.8 hPa WNW 8 km/h 11.3 km/h 69% 0 mm 155 W/m2
19:14 28.2 °C 21.9 °C 1012.8 hPa West 8.2 km/h 12.9 km/h 69% 0 mm 155 W/m2
19:19 28.1 °C 21.8 °C 1012.8 hPa WNW 8.5 km/h 11.3 km/h 69% 0 mm 142 W/m2
19:24 27.9 °C 21.8 °C 1012.8 hPa WNW 2.3 km/h 9.7 km/h 69% 0 mm 116 W/m2
19:29 28.1 °C 21.9 °C 1012.8 hPa WNW 4 km/h 9.7 km/h 69% 0 mm 100 W/m2
19:34 28 °C 21.8 °C 1012.8 hPa WNW 6.4 km/h 12.9 km/h 69% 0 mm 79 W/m2
19:39 27.8 °C 21.7 °C 1012.8 hPa West 5.8 km/h 9.7 km/h 69.2% 0 mm 81 W/m2
19:44 27.7 °C 21.6 °C 1012.8 hPa West 5.8 km/h 9.7 km/h 69.2% 0 mm 79 W/m2
19:49 27.7 °C 21.6 °C 1012.8 hPa West 5.1 km/h 8 km/h 69.6% 0 mm 69 W/m2
19:54 27.6 °C 21.6 °C 1012.8 hPa West 4.3 km/h 8 km/h 70% 0 mm 49 W/m2
19:59 27.4 °C 21.4 °C 1012.8 hPa WNW 5.3 km/h 9.7 km/h 70% 0 mm 33 W/m2
20:04 27.3 °C 21.3 °C 1012.8 hPa WNW 2.3 km/h 8 km/h 70% 0 mm 21 W/m2
20:09 27.2 °C 21.3 °C 1012.8 hPa WNW 3.4 km/h 6.4 km/h 70.2% 0 mm 16 W/m2
20:14 27.1 °C 21.4 °C 1012.8 hPa WNW 3.9 km/h 6.4 km/h 71% 0 mm 14 W/m2
20:19 26.9 °C 21.2 °C 1012.8 hPa WNW 3.5 km/h 6.4 km/h 71% 0 mm 12 W/m2
20:24 26.8 °C 21.1 °C 1012.8 hPa WNW 3.9 km/h 6.4 km/h 71% 0 mm 9 W/m2
20:29 26.7 °C 21.1 °C 1012.8 hPa WNW 2.4 km/h 4.8 km/h 71% 0 mm 5 W/m2
20:34 26.7 °C 20.9 °C 1013.1 hPa WNW 3.9 km/h 8 km/h 71% 0 mm 0 W/m2
20:39 26.4 °C 20.8 °C 1013.1 hPa WNW 4.7 km/h 6.4 km/h 71.2% 0 mm 0 W/m2
20:44 26.3 °C 20.8 °C 1013.1 hPa West 2.7 km/h 6.4 km/h 72% 0 mm 0 W/m2
20:49 26.2 °C 20.7 °C 1013.1 hPa West 1.6 km/h 4.8 km/h 72% 0 mm 0 W/m2
20:54 26.1 °C 20.7 °C 1013.1 hPa West 2.3 km/h 3.2 km/h 72% 0 mm 0 W/m2
20:59 26.1 °C 20.7 °C 1013.1 hPa West 2.3 km/h 4.8 km/h 72% 0 mm 0 W/m2
21:04 25.9 °C 20.6 °C 1013.1 hPa West 0.6 km/h 3.2 km/h 72% 0 mm 0 W/m2
21:09 25.9 °C 20.5 °C 1013.1 hPa Calm   1.6 km/h 72% 0 mm 0 W/m2
21:14 25.8 °C 20.6 °C 1013.1 hPa Calm     72.8% 0 mm 0 W/m2
21:19 25.8 °C 20.6 °C 1013.1 hPa Calm     73% 0 mm 0 W/m2
21:24 25.8 °C 20.6 °C 1013.1 hPa Calm     73% 0 mm 0 W/m2
21:29 25.7 °C 20.4 °C 1013.4 hPa Calm     73% 0 mm 0 W/m2
21:34 25.5 °C 20.5 °C 1013.4 hPa Calm     74% 0 mm 0 W/m2
21:39 25.3 °C 20.3 °C 1013.4 hPa Calm     74% 0 mm 0 W/m2
21:44 25.1 °C 20.1 °C 1013.4 hPa Calm     74% 0 mm 0 W/m2
21:49 24.8 °C 19.8 °C 1013.4 hPa West 0.6 km/h 3.2 km/h 74% 0 mm 0 W/m2
21:54 24.7 °C 19.8 °C 1013.4 hPa West 0.6 km/h 4.8 km/h 74.2% 0 mm 0 W/m2
21:59 24.7 °C 19.9 °C 1013.4 hPa West 1.9 km/h 4.8 km/h 75% 0 mm 0 W/m2
22:04 24.6 °C 19.9 °C 1013.4 hPa West 3.7 km/h 4.8 km/h 75% 0 mm 0 W/m2
22:09 24.4 °C 19.8 °C 1013.4 hPa West 3.5 km/h 4.8 km/h 75% 0 mm 0 W/m2
22:14 24.3 °C 19.7 °C 1013.4 hPa West 2.7 km/h 4.8 km/h 75% 0 mm 0 W/m2
22:19 24.3 °C 19.7 °C 1013.4 hPa West 1.8 km/h 3.2 km/h 75.6% 0 mm 0 W/m2
22:23 24.3 °C 19.8 °C 1013.4 hPa Calm   4.8 km/h 76% 0 mm 0 W/m2
22:29 24.2 °C 19.7 °C 1013.4 hPa Calm     76% 0 mm 0 W/m2
22:34 24.1 °C 19.6 °C 1013.4 hPa Calm     76% 0 mm 0 W/m2
22:39 24 °C 19.7 °C 1013.1 hPa Calm   3.2 km/h 76.8% 0 mm 0 W/m2
22:44 23.9 °C 19.6 °C 1013.1 hPa Calm     77% 0 mm 0 W/m2
22:49 23.9 °C 19.6 °C 1013.4 hPa Calm     77% 0 mm 0 W/m2
22:54 23.7 °C 19.6 °C 1013.4 hPa West 1.3 km/h 3.2 km/h 77.6% 0 mm 0 W/m2
22:59 23.4 °C 19.4 °C 1013.4 hPa West 2.6 km/h 3.2 km/h 78.2% 0 mm 0 W/m2
23:04 23.3 °C 19.4 °C 1013.1 hPa West 3.5 km/h 6.4 km/h 79% 0 mm 0 W/m2
23:09 23 °C 19.3 °C 1013.1 hPa West 4.2 km/h 6.4 km/h 79.8% 0 mm 0 W/m2
23:14 22.8 °C 19.3 °C 1013.1 hPa WNW 4.2 km/h 8 km/h 80.2% 0 mm 0 W/m2
23:19 22.7 °C 19.3 °C 1013.1 hPa NNW 3.7 km/h 6.4 km/h 81% 0 mm 0 W/m2
23:24 22.7 °C 19.3 °C 1013.1 hPa North 5.3 km/h 8 km/h 81% 0 mm 0 W/m2
23:29 22.7 °C 19.3 °C 1013.1 hPa NNE 3.4 km/h 8 km/h 81% 0 mm 0 W/m2
23:34 22.7 °C 19.3 °C 1013.1 hPa NNE 0.8 km/h 3.2 km/h 81% 0 mm 0 W/m2
23:39 22.7 °C 19.3 °C 1013.1 hPa NNE 0.3 km/h 3.2 km/h 81% 0 mm 0 W/m2
23:44 22.7 °C 19.3 °C 1013.1 hPa NNE 0.6 km/h 1.6 km/h 81% 0 mm 0 W/m2
23:49 22.6 °C 19.2 °C 1013.1 hPa NNE 0.6 km/h 3.2 km/h 81% 0 mm 0 W/m2
23:53 22.4 °C 19.1 °C 1013.1 hPa Calm   3.2 km/h 81% 0 mm 0 W/m2
23:59 22.4 °C 19.2 °C 1013.1 hPa Calm     81.8% 0 mm 0 W/m2
Bath Spa Weather
Compliments of Weather Underground - 2 mb